Time;durP1;ratioP1;P1;durP2;ratioP2;P2;SDS_P1;SDS_P2;PMS_P1;PMS_P2;Temp;Humidity;BMP_temperature;BMP_pressure;BME280_temperature;BME280_humidity;BME280_pressure;Samples;Min_cycle;Max_cycle;Signal;HPM_P1;HPM_P2
2022/04/01 00:02:11;;;;;;;;;1.75;1.25;;;;;4.37;57.58;99955.91;4975908;28;45398;-55
2022/04/01 00:04:39;;;;;;;;;0.00;0.00;;;;;4.22;57.41;99959.16;4975444;28;45490;-55
2022/04/01 00:07:05;;;;;;;;;1.00;1.00;;;;;4.18;57.52;99968.13;4979064;28;45398;-53
2022/04/01 00:09:30;;;;;;;;;1.00;0.00;;;;;3.83;57.83;99912.47;5000602;28;45365;-53
2022/04/01 00:11:56;;;;;;;;;0.25;0.25;;;;;3.93;58.00;99916.47;4958700;28;45469;-50
2022/04/01 00:14:21;;;;;;;;;0.75;0.00;;;;;4.19;57.95;99936.47;4976066;28;45409;-53
2022/04/01 00:16:47;;;;;;;;;7.25;2.00;;;;;4.02;58.27;99926.59;4976631;28;45445;-50
2022/04/01 00:19:13;;;;;;;;;1.00;1.00;;;;;4.17;57.79;99935.69;4975144;28;45370;-50
2022/04/01 00:21:39;;;;;;;;;1.50;1.00;;;;;4.11;57.83;99946.44;4975762;28;45547;-54
2022/04/01 00:24:05;;;;;;;;;0.50;0.50;;;;;4.06;58.33;99936.09;4976831;28;45524;-52
2022/04/01 00:26:31;;;;;;;;;3.00;0.75;;;;;3.91;58.21;99938.50;4975068;28;46088;-55
2022/04/01 00:28:56;;;;;;;;;0.00;0.00;;;;;4.02;58.63;99931.00;4974748;28;45474;-54
2022/04/01 00:31:22;;;;;;;;;1.00;1.00;;;;;3.99;58.65;99937.25;4976270;27;45274;-55
2022/04/01 00:33:47;;;;;;;;;4.50;0.50;;;;;4.03;58.44;99943.25;4976339;28;45295;-56
2022/04/01 00:36:13;;;;;;;;;0.50;0.50;;;;;4.07;57.94;99948.34;4975557;28;46353;-54
2022/04/01 00:38:39;;;;;;;;;0.00;0.00;;;;;4.08;58.19;99936.91;4976543;27;45426;-56
2022/04/01 00:41:04;;;;;;;;;3.50;0.50;;;;;4.00;58.47;99938.97;4975915;28;45364;-56
2022/04/01 00:43:33;;;;;;;;;0.00;0.00;;;;;3.88;59.09;99939.44;4976229;28;45492;-56
2022/04/01 00:45:58;;;;;;;;;0.00;0.00;;;;;3.83;59.24;99907.22;5024646;27;45654;-56
2022/04/01 00:48:27;;;;;;;;;1.00;0.00;;;;;4.00;58.54;99923.19;5050799;27;45446;-60
2022/04/01 00:50:52;;;;;;;;;1.00;1.00;;;;;4.07;58.83;99926.44;4976619;28;45261;-56
2022/04/01 00:53:18;;;;;;;;;0.50;0.50;;;;;4.07;59.31;99913.28;4979771;28;45345;-55
2022/04/01 00:55:46;;;;;;;;;1.50;1.00;;;;;4.12;58.90;99906.91;4975172;28;45411;-55
2022/04/01 00:58:12;;;;;;;;;4.00;0.00;;;;;3.95;59.23;99924.28;4976800;27;45572;-53
2022/04/01 01:00:38;;;;;;;;;0.00;0.00;;;;;3.90;59.29;99899.91;4975834;28;45316;-57
2022/04/01 01:03:07;;;;;;;;;0.00;0.00;;;;;3.72;59.36;99896.25;4977025;28;45477;-53
2022/04/01 01:05:33;;;;;;;;;0.00;0.00;;;;;3.69;59.98;99901.63;4976110;28;46440;-54
2022/04/01 01:07:59;;;;;;;;;0.00;0.00;;;;;3.77;59.95;99889.88;4980434;27;45218;-56
2022/04/01 01:10:25;;;;;;;;;0.75;0.75;;;;;3.86;59.32;99883.41;4976063;28;45350;-55
2022/04/01 01:12:51;;;;;;;;;0.50;0.50;;;;;3.79;59.67;99867.03;4976086;27;45375;-56
2022/04/01 01:15:18;;;;;;;;;0.00;0.00;;;;;3.68;59.96;99882.38;5071916;28;45582;-51
2022/04/01 01:17:47;;;;;;;;;0.00;0.00;;;;;3.73;60.05;99877.78;5049118;27;45394;-53
2022/04/01 01:20:17;;;;;;;;;0.00;0.00;;;;;3.81;59.95;99875.72;5044398;28;45455;-51
2022/04/01 01:22:43;;;;;;;;;0.00;0.00;;;;;3.91;59.88;99880.63;4974408;28;45541;-51
2022/04/01 01:25:12;;;;;;;;;2.00;0.50;;;;;3.90;60.14;99871.84;4974983;28;45479;-56
2022/04/01 01:27:38;;;;;;;;;0.00;0.00;;;;;3.99;60.22;99874.09;4958870;28;45236;-57
2022/04/01 01:30:07;;;;;;;;;1.00;1.00;;;;;3.77;61.36;99862.72;4975299;27;45271;-55
2022/04/01 01:32:34;;;;;;;;;0.00;0.00;;;;;3.77;61.71;99846.94;4994552;28;46000;-54
2022/04/01 01:35:00;;;;;;;;;1.00;0.00;;;;;3.83;61.66;99846.72;5024817;27;46199;-57
2022/04/01 01:37:26;;;;;;;;;1.00;1.00;;;;;3.88;61.88;99841.25;5000487;27;45565;-56
2022/04/01 01:39:51;;;;;;;;;0.75;0.75;;;;;3.90;61.53;99842.91;4975376;28;45414;-55
2022/04/01 01:42:18;;;;;;;;;1.00;1.00;;;;;3.88;62.19;99831.59;4975776;28;45563;-54
2022/04/01 01:44:44;;;;;;;;;1.00;1.00;;;;;3.96;63.30;99840.03;4974935;28;45333;-55
2022/04/01 01:47:09;;;;;;;;;5.00;0.75;;;;;3.89;64.24;99835.94;4975530;28;45738;-56
2022/04/01 01:49:35;;;;;;;;;0.75;0.75;;;;;3.88;64.36;99817.59;4976572;28;45251;-55
2022/04/01 01:54:50;;;;;;;;;1.00;0.00;;;;;3.97;64.72;99828.59;4977366;28;45507;-53
2022/04/01 01:57:22;;;;;;;;;0.00;0.00;;;;;3.98;64.49;99826.81;4979379;27;45491;-55
2022/04/01 01:59:48;;;;;;;;;3.00;0.25;;;;;4.02;63.50;99821.34;4975192;27;45417;-54
2022/04/01 02:02:14;;;;;;;;;0.75;0.75;;;;;4.04;65.05;99824.81;4975562;28;45598;-56
2022/04/01 02:04:41;;;;;;;;;1.00;1.00;;;;;4.06;63.82;99806.31;4975187;28;46044;-55
2022/04/01 02:07:08;;;;;;;;;2.00;0.75;;;;;4.10;64.51;99807.91;4974194;28;45503;-55
2022/04/01 02:09:34;;;;;;;;;1.00;1.00;;;;;3.93;63.97;99795.44;4974061;28;45423;-57
2022/04/01 02:12:00;;;;;;;;;4.25;0.00;;;;;4.01;63.80;99793.34;4975128;28;45240;-55
2022/04/01 02:14:26;;;;;;;;;1.00;1.00;;;;;4.08;64.27;99800.06;4973644;28;46515;-54
2022/04/01 02:16:52;;;;;;;;;0.75;0.00;;;;;4.13;63.80;99802.50;4983435;28;45415;-52
2022/04/01 02:19:21;;;;;;;;;1.00;0.75;;;;;4.15;64.15;99798.88;5038975;27;45571;-54
2022/04/01 02:21:51;;;;;;;;;4.00;1.50;;;;;4.19;64.18;99801.41;4985597;28;45525;-56
2022/04/01 02:24:18;;;;;;;;;0.25;0.25;;;;;4.14;66.32;99799.78;4974663;28;47116;-52
2022/04/01 02:26:48;;;;;;;;;4.75;1.25;;;;;4.00;67.38;99777.63;4973515;28;45551;-55
2022/04/01 02:29:19;;;;;;;;;0.00;0.00;;;;;4.08;67.38;99776.38;5046832;28;45310;-55
2022/04/01 02:31:51;;;;;;;;;1.00;1.00;;;;;4.05;67.31;99775.66;4975048;28;45358;-54
2022/04/01 02:34:18;;;;;;;;;2.00;1.00;;;;;4.01;68.28;99780.19;4974750;28;46089;-56
2022/04/01 02:36:43;;;;;;;;;1.25;1.25;;;;;3.96;69.24;99784.78;4974873;28;45332;-54
2022/04/01 02:39:09;;;;;;;;;3.50;3.00;;;;;3.87;69.52;99773.78;4978428;28;45794;-51
2022/04/01 02:41:35;;;;;;;;;1.50;0.00;;;;;3.85;70.64;99782.59;4974886;28;45473;-53
2022/04/01 02:44:09;;;;;;;;;3.00;1.00;;;;;3.76;68.77;99763.72;4974018;28;46067;-55
2022/04/01 02:46:40;;;;;;;;;1.00;1.00;;;;;3.73;70.30;99782.25;4980581;28;45435;-55
2022/04/01 02:49:07;;;;;;;;;1.00;1.00;;;;;3.74;71.35;99782.19;4992863;28;45346;-58
2022/04/01 02:51:36;;;;;;;;;1.00;1.00;;;;;3.71;71.96;99805.13;4974740;27;45605;-56
2022/04/01 02:54:03;;;;;;;;;1.50;1.00;;;;;3.72;70.69;99775.28;5000009;28;46388;-56
2022/04/01 02:56:30;;;;;;;;;1.00;0.00;;;;;3.71;71.02;99768.31;4985667;27;45410;-53
2022/04/01 02:58:56;;;;;;;;;1.00;0.00;;;;;3.71;71.47;99784.94;5077301;27;45331;-55
2022/04/01 03:01:21;;;;;;;;;0.00;0.00;;;;;3.62;71.54;99773.94;4977240;27;46635;-53
2022/04/01 03:03:47;;;;;;;;;3.75;2.00;;;;;3.45;73.43;99748.34;4972869;28;45246;-54
2022/04/01 03:06:12;;;;;;;;;0.50;0.00;;;;;3.57;70.99;99762.78;4972533;28;45490;-54
2022/04/01 03:08:40;;;;;;;;;1.25;0.75;;;;;3.47;72.48;99757.03;4974128;28;45354;-52
2022/04/01 03:11:06;;;;;;;;;3.00;1.25;;;;;3.48;73.28;99772.72;5068141;28;45538;-54
2022/04/01 03:13:31;;;;;;;;;4.75;1.50;;;;;3.51;72.22;99762.09;4994875;28;45416;-55
2022/04/01 03:15:57;;;;;;;;;2.50;1.25;;;;;3.50;72.66;99760.38;4974154;28;45310;-54
2022/04/01 03:18:23;;;;;;;;;1.00;1.00;;;;;3.46;71.71;99743.03;4973009;27;45645;-53
2022/04/01 03:20:48;;;;;;;;;2.25;1.00;;;;;3.42;73.63;99743.22;4973122;28;45688;-53
2022/04/01 03:23:15;;;;;;;;;0.00;0.00;;;;;3.26;74.45;99719.34;4973529;28;45402;-54
2022/04/01 03:25:41;;;;;;;;;1.00;1.00;;;;;3.30;74.75;99747.19;4976896;28;45392;-54
2022/04/01 03:28:07;;;;;;;;;0.00;0.00;;;;;3.25;73.83;99739.50;4988891;28;45154;-57
2022/04/01 03:30:33;;;;;;;;;0.50;0.50;;;;;3.39;72.67;99741.56;4989020;28;45503;-56
2022/04/01 03:32:58;;;;;;;;;0.00;0.00;;;;;3.40;71.92;99727.50;4973470;28;46073;-54
2022/04/01 03:35:24;;;;;;;;;3.75;1.00;;;;;3.33;73.13;99730.44;4974523;28;45319;-53
2022/04/01 03:37:50;;;;;;;;;1.00;1.00;;;;;3.31;73.67;99722.63;4973647;28;45340;-52
2022/04/01 03:40:17;;;;;;;;;0.00;0.00;;;;;3.39;74.60;99744.22;4978874;28;45463;-54
2022/04/01 03:42:44;;;;;;;;;1.25;1.25;;;;;3.36;72.85;99730.31;5074975;28;46272;-56
2022/04/01 03:45:12;;;;;;;;;1.00;1.00;;;;;3.31;74.32;99741.00;5055830;27;45427;-54
2022/04/01 03:47:40;;;;;;;;;1.00;1.00;;;;;3.23;74.63;99740.44;4972709;28;45713;-54
2022/04/01 03:50:09;;;;;;;;;1.00;1.00;;;;;3.25;73.58;99734.25;4973410;28;45450;-55
2022/04/01 03:52:35;;;;;;;;;0.25;0.25;;;;;3.39;75.22;99738.94;4972937;28;45400;-55
2022/04/01 03:55:09;;;;;;;;;1.00;1.00;;;;;3.35;74.61;99721.56;4973299;28;46717;-55
2022/04/01 03:57:37;;;;;;;;;1.00;1.00;;;;;3.36;73.67;99723.28;4972997;28;45358;-53
2022/04/01 04:00:07;;;;;;;;;1.00;1.00;;;;;3.40;73.32;99730.16;4972101;28;45304;-54
2022/04/01 04:02:34;;;;;;;;;2.25;0.50;;;;;3.35;73.47;99712.84;4970423;28;47127;-55
2022/04/01 04:05:01;;;;;;;;;1.50;0.00;;;;;3.41;73.35;99726.59;4971966;28;45259;-54
2022/04/01 04:07:27;;;;;;;;;0.00;0.00;;;;;3.46;73.77;99729.03;4971472;28;45399;-54
2022/04/01 04:09:53;;;;;;;;;1.00;1.00;;;;;3.38;74.09;99729.31;4972836;28;45696;-56
2022/04/01 04:12:20;;;;;;;;;0.00;0.00;;;;;3.43;73.41;99731.78;4973423;28;45571;-56
2022/04/01 04:14:51;;;;;;;;;1.75;1.75;;;;;3.24;73.49;99734.28;4972495;28;45362;-57
2022/04/01 04:17:39;;;;;;;;;2.75;1.00;;;;;3.29;73.79;99719.22;4973107;28;45399;-55
2022/04/01 04:20:13;;;;;;;;;0.50;0.50;;;;;3.42;73.73;99725.69;4971802;28;45487;-52
2022/04/01 04:22:57;;;;;;;;;2.00;2.00;;;;;3.50;72.63;99734.09;4961243;28;48152;-55
2022/04/01 04:25:29;;;;;;;;;1.50;1.50;;;;;3.51;72.20;99730.53;4980432;28;45406;-55
2022/04/01 04:27:59;;;;;;;;;1.50;1.50;;;;;3.28;72.54;99728.00;4981282;28;45488;-56
2022/04/01 04:30:33;;;;;;;;;0.25;0.25;;;;;3.37;73.58;99737.28;4973232;28;45532;-55
2022/04/01 04:33:06;;;;;;;;;1.00;1.00;;;;;3.40;72.08;99738.03;4975680;28;45357;-54
2022/04/01 04:35:36;;;;;;;;;1.00;1.00;;;;;3.36;72.27;99725.06;4974401;28;45422;-53
2022/04/01 04:38:02;;;;;;;;;2.25;1.00;;;;;3.44;71.34;99723.84;4993919;27;45446;-51
2022/04/01 04:40:29;;;;;;;;;1.00;1.00;;;;;3.37;70.26;99722.34;4980292;27;45232;-55
2022/04/01 04:42:55;;;;;;;;;0.75;0.75;;;;;3.37;70.90;99732.88;4974138;28;46134;-54
2022/04/01 04:45:22;;;;;;;;;1.25;1.25;;;;;3.25;70.82;99746.50;4975740;28;45238;-55
2022/04/01 04:47:49;;;;;;;;;4.00;2.00;;;;;3.36;70.91;99746.94;4976941;28;45458;-55
2022/04/01 04:50:19;;;;;;;;;3.25;3.25;;;;;3.41;71.49;99747.63;4974596;28;45517;-55
2022/04/01 04:52:48;;;;;;;;;1.50;1.50;;;;;3.49;71.46;99737.63;4985376;28;45275;-55
2022/04/01 04:55:14;;;;;;;;;1.00;1.00;;;;;3.50;71.04;99743.75;4993483;27;45552;-54
2022/04/01 04:57:42;;;;;;;;;1.00;1.00;;;;;3.57;70.59;99754.88;4975559;28;45472;-57
2022/04/01 05:00:08;;;;;;;;;1.00;1.00;;;;;3.60;71.26;99744.22;4977619;28;45414;-50
2022/04/01 05:03:06;;;;;;;;;1.00;1.00;;;;;3.71;70.69;99742.03;5078718;27;45931;-53
2022/04/01 05:05:44;;;;;;;;;2.25;1.00;;;;;3.70;69.25;99763.97;4997403;28;45590;-51
2022/04/01 05:08:21;;;;;;;;;1.25;1.25;;;;;3.78;69.79;99767.16;4978829;28;45529;-56
2022/04/01 05:11:06;;;;;;;;;1.00;1.00;;;;;3.72;69.71;99767.41;4978984;27;46298;-55
2022/04/01 05:13:58;;;;;;;;;1.75;1.75;;;;;3.81;70.09;99774.91;4974919;28;45342;-51
2022/04/01 05:16:52;;;;;;;;;1.75;1.75;;;;;3.89;69.19;99785.97;4982384;28;45529;-53
2022/04/01 05:19:26;;;;;;;;;1.00;1.00;;;;;3.72;67.20;99785.81;4985193;28;45464;-56
2022/04/01 05:22:07;;;;;;;;;2.50;2.50;;;;;3.67;67.78;99785.16;4975699;28;45518;-53
2022/04/01 05:24:47;;;;;;;;;1.25;1.25;;;;;3.68;67.66;99779.81;4975087;28;45271;-52
2022/04/01 05:27:31;;;;;;;;;2.50;1.00;;;;;3.60;66.87;99791.56;4984778;28;45735;-55
2022/04/01 05:30:12;;;;;;;;;1.00;1.00;;;;;3.62;67.67;99792.34;4975016;28;45473;-54
2022/04/01 05:32:40;;;;;;;;;8.00;2.00;;;;;3.65;68.05;99787.00;4970704;28;45412;-54
2022/04/01 05:35:06;;;;;;;;;1.75;1.75;;;;;3.77;68.37;99783.84;4973779;28;47793;-55
2022/04/01 05:37:33;;;;;;;;;1.75;1.75;;;;;3.79;67.47;99782.88;4981421;28;45488;-56
2022/04/01 05:40:05;;;;;;;;;1.50;1.50;;;;;3.81;67.42;99786.28;4982781;27;45417;-53
2022/04/01 05:42:32;;;;;;;;;2.00;2.00;;;;;3.85;68.08;99774.72;4973539;28;45529;-55
2022/04/01 05:45:00;;;;;;;;;2.00;2.00;;;;;3.88;67.60;99804.44;4990223;27;47027;-53
2022/04/01 05:47:30;;;;;;;;;2.00;2.00;;;;;3.69;67.58;99792.06;4989896;27;45447;-52
2022/04/01 05:49:58;;;;;;;;;1.00;1.00;;;;;3.73;67.87;99795.41;4975155;28;45312;-51
2022/04/01 05:52:23;;;;;;;;;2.50;1.75;;;;;3.73;68.20;99819.06;4974530;28;45427;-52
2022/04/01 05:54:49;;;;;;;;;2.00;2.00;;;;;3.81;67.85;99796.81;4980259;28;47201;-52
2022/04/01 05:57:19;;;;;;;;;3.25;1.25;;;;;3.79;67.86;99824.94;4981621;27;45359;-55
2022/04/01 05:59:45;;;;;;;;;1.25;1.25;;;;;3.55;69.09;99803.13;4975346;28;45375;-55
2022/04/01 06:02:40;;;;;;;;;2.00;2.00;;;;;3.59;69.73;99826.66;5039647;27;45413;-58
2022/04/01 06:05:50;;;;;;;;;4.75;2.00;;;;;3.52;70.28;99828.69;4967554;28;45402;-59
2022/04/01 06:08:34;;;;;;;;;7.50;7.50;;;;;3.47;71.14;99828.00;5034332;28;45459;-50
2022/04/01 06:11:36;;;;;;;;;11.25;11.00;;;;;3.59;71.27;99834.53;4974465;28;45515;-57
2022/04/01 06:14:28;;;;;;;;;2.25;2.25;;;;;3.45;71.59;99843.81;5004636;28;45415;-53
2022/04/01 06:17:17;;;;;;;;;9.50;5.50;;;;;3.28;72.07;99851.50;4992825;28;47005;-61
2022/04/01 06:19:45;;;;;;;;;1.00;1.00;;;;;3.17;73.09;99848.44;4972592;28;45536;-58
2022/04/01 06:22:20;;;;;;;;;5.25;4.00;;;;;3.13;73.92;99854.72;4975433;28;45340;-58
2022/04/01 06:25:06;;;;;;;;;7.00;4.75;;;;;3.20;73.77;99861.44;4975784;28;45548;-52
2022/04/01 06:27:41;;;;;;;;;4.25;4.25;;;;;3.08;73.85;99868.00;4973998;28;45484;-52
2022/04/01 06:30:12;;;;;;;;;3.50;3.50;;;;;3.08;74.51;99849.63;4975495;27;45490;-52
2022/04/01 06:32:50;;;;;;;;;7.00;7.00;;;;;3.19;74.77;99878.13;4974087;28;45472;-52
2022/04/01 06:35:47;;;;;;;;;9.00;7.25;;;;;3.14;74.79;99867.81;4975118;28;45252;-52
2022/04/01 06:38:20;;;;;;;;;8.25;7.00;;;;;3.16;74.89;99865.13;4965903;28;46486;-49
2022/04/01 06:40:45;;;;;;;;;10.50;6.75;;;;;3.11;74.27;99873.16;4959514;28;45533;-51
2022/04/01 06:43:11;;;;;;;;;9.50;3.50;;;;;2.96;74.68;99878.97;4968522;28;47589;-58
2022/04/01 06:45:36;;;;;;;;;6.75;5.25;;;;;2.81;76.16;99872.50;4971366;28;45277;-54
2022/04/01 06:48:02;;;;;;;;;7.00;7.00;;;;;2.79;76.58;99884.84;4967071;28;47395;-53
2022/04/01 06:50:28;;;;;;;;;8.25;6.75;;;;;2.84;75.92;99874.16;4963607;28;45468;-51
2022/04/01 06:52:53;;;;;;;;;5.25;5.25;;;;;2.92;75.33;99888.72;4973115;28;45339;-51
2022/04/01 06:55:19;;;;;;;;;6.75;6.75;;;;;2.97;76.12;99884.16;4969781;28;45352;-49
2022/04/01 06:57:44;;;;;;;;;6.50;6.50;;;;;2.92;75.84;99893.97;4973877;28;45589;-56
2022/04/01 07:00:14;;;;;;;;;5.75;5.75;;;;;3.03;76.28;99895.38;4966305;28;45330;-51
2022/04/01 07:02:41;;;;;;;;;7.00;7.00;;;;;2.76;75.61;99892.81;5026820;27;45367;-54
2022/04/01 07:05:08;;;;;;;;;9.50;7.75;;;;;2.57;76.30;99894.34;4959579;28;45661;-54
2022/04/01 07:07:34;;;;;;;;;9.25;7.00;;;;;2.56;77.06;99897.91;4972750;28;45631;-53
2022/04/01 07:10:04;;;;;;;;;3.00;3.00;;;;;2.41;76.56;99882.69;4972355;28;45268;-52
2022/04/01 07:12:32;;;;;;;;;9.75;7.25;;;;;2.51;77.45;99902.47;4964334;28;45566;-56
2022/04/01 07:15:00;;;;;;;;;14.25;7.50;;;;;2.60;77.34;99907.38;4965493;28;45370;-55
2022/04/01 07:17:28;;;;;;;;;8.25;8.25;;;;;2.72;77.03;99903.47;4972590;28;46212;-55
2022/04/01 07:19:54;;;;;;;;;6.50;6.50;;;;;2.56;76.81;99914.50;4972904;28;45401;-51
2022/04/01 07:22:20;;;;;;;;;10.50;6.00;;;;;2.66;77.11;99901.94;4960377;28;45413;-55
2022/04/01 07:24:46;;;;;;;;;12.00;7.00;;;;;2.67;76.84;99919.38;4963654;28;45464;-52
2022/04/01 07:27:12;;;;;;;;;12.25;9.75;;;;;2.57;77.27;99910.09;4953685;28;45496;-54
2022/04/01 07:29:38;;;;;;;;;10.00;8.50;;;;;2.59;77.37;99918.78;4971285;28;45476;-56
2022/04/01 07:34:49;;;;;;;;;9.50;9.50;;;;;2.75;77.26;99927.00;4970689;28;45212;-54
2022/04/01 07:37:14;;;;;;;;;12.00;10.00;;;;;2.76;76.74;99924.34;4974611;28;48169;-53
2022/04/01 07:39:40;;;;;;;;;11.25;10.00;;;;;2.86;77.28;99930.09;4969851;28;45475;-53
2022/04/01 07:42:06;;;;;;;;;12.75;10.00;;;;;2.90;76.12;99922.06;4954477;28;45512;-60
2022/04/01 07:44:33;;;;;;;;;13.00;12.75;;;;;2.93;75.96;99931.63;4953343;28;45694;-55
2022/04/01 07:47:00;;;;;;;;;7.00;7.00;;;;;2.91;76.74;99928.19;4954080;28;46087;-55
2022/04/01 07:49:25;;;;;;;;;5.00;3.50;;;;;2.82;76.04;99931.97;4970487;28;45428;-50
2022/04/01 07:51:51;;;;;;;;;13.00;11.00;;;;;2.78;75.94;99940.88;5072007;28;45416;-52
2022/04/01 07:54:16;;;;;;;;;10.50;10.50;;;;;2.84;76.01;99939.81;5060333;28;45668;-58
2022/04/01 07:56:42;;;;;;;;;10.00;9.75;;;;;2.90;76.98;99947.47;5016437;27;47503;-58
2022/04/01 07:59:10;;;;;;;;;13.00;11.75;;;;;2.97;77.04;99955.06;4962975;28;45356;-55
2022/04/01 08:01:36;;;;;;;;;8.25;8.25;;;;;3.00;75.96;99940.16;5036461;28;45285;-54
2022/04/01 08:04:02;;;;;;;;;9.50;9.50;;;;;3.05;75.40;99962.69;4959067;27;45512;-56
2022/04/01 08:06:29;;;;;;;;;17.75;11.75;;;;;2.97;75.09;99955.06;4963568;28;46264;-56
2022/04/01 08:08:55;;;;;;;;;16.50;16.50;;;;;3.05;75.24;99961.84;4955284;28;45608;-51
2022/04/01 08:11:23;;;;;;;;;8.50;8.25;;;;;3.06;74.48;99960.94;4957042;28;45406;-56
2022/04/01 08:13:49;;;;;;;;;10.75;9.50;;;;;3.15;75.36;99963.25;4957516;28;45492;-51
2022/04/01 08:16:14;;;;;;;;;11.75;11.75;;;;;2.99;74.04;99983.06;4956789;28;45947;-51
2022/04/01 08:18:40;;;;;;;;;10.50;10.50;;;;;2.97;75.14;99970.84;4957271;28;45204;-52
2022/04/01 08:21:05;;;;;;;;;11.25;11.25;;;;;3.06;75.02;99989.81;4968124;28;45438;-51
2022/04/01 08:23:34;;;;;;;;;10.25;10.25;;;;;3.06;75.47;99981.94;4975028;28;45486;-52
2022/04/01 08:26:03;;;;;;;;;17.50;13.50;;;;;3.08;74.46;99985.38;4968221;28;45967;-55
2022/04/01 08:28:29;;;;;;;;;11.00;10.25;;;;;3.07;74.75;99992.41;4957402;28;45207;-58
2022/04/01 08:30:54;;;;;;;;;16.25;13.50;;;;;2.98;73.57;99982.19;4957602;28;45403;-54
2022/04/01 08:33:20;;;;;;;;;15.00;13.25;;;;;2.78;73.93;99963.66;4961427;28;45589;-55
2022/04/01 08:35:49;;;;;;;;;16.00;12.50;;;;;3.13;74.35;100005.34;4973465;28;48127;-51
2022/04/01 08:38:15;;;;;;;;;12.50;12.50;;;;;3.15;73.46;100010.53;4968568;28;45882;-54
2022/04/01 08:40:41;;;;;;;;;13.50;13.50;;;;;3.20;74.24;100008.59;4971023;28;45528;-57
2022/04/01 08:43:07;;;;;;;;;13.00;13.00;;;;;3.10;73.42;100013.31;4973940;28;45472;-53
2022/04/01 08:45:35;;;;;;;;;16.25;15.75;;;;;3.09;74.56;100005.47;4979599;28;47496;-55
2022/04/01 08:48:02;;;;;;;;;14.25;13.00;;;;;3.20;74.42;100025.22;4972434;28;45265;-52
2022/04/01 08:50:28;;;;;;;;;20.25;15.50;;;;;3.28;73.75;100034.63;4984907;27;45330;-50
2022/04/01 08:52:53;;;;;;;;;13.25;13.25;;;;;3.24;73.69;100025.94;4994233;27;45264;-53
2022/04/01 08:55:19;;;;;;;;;22.50;18.50;;;;;3.27;73.27;100025.88;4995074;28;45888;-50
2022/04/01 08:57:45;;;;;;;;;19.50;18.25;;;;;3.36;73.36;100041.28;4995324;27;45411;-51
2022/04/01 09:00:13;;;;;;;;;8.25;8.25;;;;;3.36;72.17;100049.19;4998605;27;45346;-51
2022/04/01 09:02:43;;;;;;;;;18.00;13.00;;;;;3.36;72.40;100049.19;5078749;27;45286;-51
2022/04/01 09:05:09;;;;;;;;;14.50;14.50;;;;;3.27;72.75;100020.63;5079045;27;45413;-51
2022/04/01 09:07:35;;;;;;;;;15.75;13.75;;;;;3.37;72.05;100043.00;5079436;27;45399;-52
2022/04/01 09:10:06;;;;;;;;;20.50;15.75;;;;;3.39;71.86;100061.38;5078641;27;45788;-53
2022/04/01 09:12:34;;;;;;;;;21.50;18.50;;;;;3.47;73.49;100059.31;5079265;27;45226;-53
2022/04/01 09:14:59;;;;;;;;;18.50;15.00;;;;;3.53;71.94;100065.25;5076784;28;46903;-51
2022/04/01 09:17:46;;;;;;;;;15.00;13.00;;;;;3.47;71.69;100060.19;5077629;27;45457;-56
2022/04/01 09:20:14;;;;;;;;;11.25;11.25;;;;;3.43;71.28;100061.22;5077401;27;45457;-54
2022/04/01 09:22:41;;;;;;;;;10.50;10.00;;;;;3.49;71.12;100074.13;5077491;28;45470;-56
2022/04/01 09:25:11;;;;;;;;;22.75;17.00;;;;;3.36;70.95;100050.94;5078218;27;45362;-51
2022/04/01 09:27:53;;;;;;;;;14.75;13.25;;;;;3.45;70.75;100067.25;5079618;27;45341;-51
2022/04/01 09:30:24;;;;;;;;;2.00;2.00;;;;;3.36;71.08;100085.97;5079298;27;45433;-53
2022/04/01 09:32:53;;;;;;;;;12.75;10.75;;;;;3.34;70.41;100089.56;5079540;28;45325;-57
2022/04/01 09:35:28;;;;;;;;;16.00;11.25;;;;;3.45;70.48;100093.56;5094921;27;46775;-50
2022/04/01 09:37:59;;;;;;;;;14.75;14.00;;;;;3.55;70.91;100094.94;5078900;27;45495;-54
2022/04/01 09:40:28;;;;;;;;;8.25;8.25;;;;;3.59;69.81;100086.94;5080819;27;45346;-53
2022/04/01 09:42:59;;;;;;;;;13.25;11.25;;;;;3.53;70.15;100091.53;5080395;27;45412;-53
2022/04/01 09:45:25;;;;;;;;;16.50;13.75;;;;;3.48;70.36;100096.06;5079206;27;47410;-56
2022/04/01 09:48:03;;;;;;;;;14.50;10.50;;;;;3.47;70.03;100102.25;5080829;27;45214;-59
2022/04/01 09:50:39;;;;;;;;;13.75;9.00;;;;;3.61;70.95;100099.13;5061277;27;45434;-54
2022/04/01 09:53:14;;;;;;;;;16.50;16.00;;;;;3.59;70.66;100085.19;5094026;27;45292;-54
2022/04/01 09:55:44;;;;;;;;;18.50;16.25;;;;;3.54;70.62;100097.66;5077881;27;46217;-54
2022/04/01 09:58:11;;;;;;;;;12.00;12.00;;;;;3.65;70.67;100110.41;5076327;28;45323;-55
2022/04/01 10:00:38;;;;;;;;;7.25;7.25;;;;;3.62;69.58;100105.25;5055963;27;45340;-58
2022/04/01 10:03:05;;;;;;;;;16.75;12.50;;;;;3.67;70.07;100124.38;4975785;28;45335;-53
2022/04/01 10:05:31;;;;;;;;;12.50;12.50;;;;;3.66;70.68;100112.13;4974970;28;46029;-51
2022/04/01 10:07:57;;;;;;;;;16.00;14.50;;;;;3.77;70.85;100129.22;4975019;28;45329;-55
2022/04/01 10:10:25;;;;;;;;;12.25;11.50;;;;;3.89;70.41;100130.56;4975071;28;45352;-52
2022/04/01 10:12:53;;;;;;;;;10.50;10.50;;;;;3.77;70.48;100125.72;4973769;28;45603;-54
2022/04/01 10:15:19;;;;;;;;;12.00;12.00;;;;;3.88;69.74;100134.09;4974510;28;45364;-49
2022/04/01 10:17:46;;;;;;;;;14.00;10.00;;;;;3.83;69.98;100112.38;4973372;28;45441;-56
2022/04/01 10:20:17;;;;;;;;;16.75;13.75;;;;;4.00;70.64;100127.53;4974600;28;45443;-54
2022/04/01 10:22:45;;;;;;;;;17.75;16.50;;;;;4.08;70.56;100136.88;4974743;28;45247;-54
2022/04/01 10:25:32;;;;;;;;;19.00;17.75;;;;;3.90;68.26;100134.91;4975368;28;45493;-57
2022/04/01 10:28:04;;;;;;;;;21.25;17.50;;;;;3.81;68.99;100125.59;4974820;28;45353;-56
2022/04/01 10:30:32;;;;;;;;;18.75;16.75;;;;;3.92;69.35;100140.13;4975011;28;45366;-55
2022/04/01 10:32:59;;;;;;;;;17.25;17.00;;;;;3.90;69.20;100140.16;4973944;28;45403;-56
2022/04/01 10:35:25;;;;;;;;;23.00;20.25;;;;;4.02;68.53;100150.25;4974367;28;46600;-57
2022/04/01 10:38:09;;;;;;;;;15.50;13.25;;;;;4.00;69.15;100154.72;4974553;28;45379;-55
2022/04/01 10:40:49;;;;;;;;;18.75;18.75;;;;;4.00;68.65;100154.72;4976812;27;45274;-54
2022/04/01 10:43:19;;;;;;;;;21.75;17.25;;;;;4.11;68.68;100157.81;4976862;27;45236;-52
2022/04/01 10:46:04;;;;;;;;;16.25;15.00;;;;;4.18;68.81;100158.47;4976292;27;45287;-54
2022/04/01 10:54:01;;;;;;;;;20.25;17.50;;;;;4.08;67.88;100155.31;4973325;28;45493;-56
2022/04/01 10:56:28;;;;;;;;;20.50;19.75;;;;;4.02;68.81;100173.06;4972162;28;45398;-58
2022/04/01 10:59:18;;;;;;;;;20.25;20.25;;;;;4.04;68.95;100169.50;4972658;28;45361;-55
2022/04/01 11:01:53;;;;;;;;;21.25;16.50;;;;;4.09;68.16;100174.59;5043431;28;45346;-51
2022/04/01 11:04:18;;;;;;;;;14.00;14.00;;;;;4.05;67.54;100167.72;5077674;27;45713;-50
2022/04/01 11:07:04;;;;;;;;;20.75;20.00;;;;;4.04;68.68;100174.75;5077223;27;45295;-57
2022/04/01 11:09:45;;;;;;;;;22.50;22.50;;;;;4.12;69.54;100180.59;5073657;28;45494;-56
2022/04/01 11:12:20;;;;;;;;;24.50;19.25;;;;;4.29;68.96;100182.59;5077221;27;45371;-56
2022/04/01 11:14:58;;;;;;;;;18.25;11.25;;;;;4.24;68.20;100178.41;5075861;27;45389;-51
2022/04/01 11:17:34;;;;;;;;;17.25;15.00;;;;;4.20;67.06;100192.63;5076518;27;45948;-57
2022/04/01 11:20:14;;;;;;;;;11.00;8.50;;;;;4.33;67.78;100199.16;5076751;28;45302;-55
2022/04/01 11:22:42;;;;;;;;;17.00;11.75;;;;;4.08;66.91;100196.56;5077379;27;45465;-55
2022/04/01 11:25:14;;;;;;;;;12.25;12.25;;;;;4.07;67.46;100192.19;5075886;27;45473;-57
2022/04/01 11:27:50;;;;;;;;;19.00;16.25;;;;;4.09;67.04;100207.00;5059050;28;47781;-52
2022/04/01 11:30:19;;;;;;;;;16.75;15.50;;;;;4.06;66.93;100209.75;5076647;27;45378;-56
2022/04/01 11:32:48;;;;;;;;;14.25;11.00;;;;;4.00;66.76;100199.44;5076435;27;45193;-57
2022/04/01 11:35:16;;;;;;;;;17.00;16.00;;;;;3.93;66.25;100200.59;5092396;27;45491;-54
2022/04/01 11:37:49;;;;;;;;;16.75;16.75;;;;;4.05;67.51;100209.81;5076802;27;45464;-58
2022/04/01 11:40:22;;;;;;;;;16.50;13.50;;;;;3.97;66.62;100215.34;5076724;27;45384;-58
2022/04/01 11:43:03;;;;;;;;;19.00;16.00;;;;;3.88;66.76;100207.75;5080293;27;45305;-53
2022/04/01 11:45:36;;;;;;;;;15.50;13.75;;;;;4.00;67.83;100222.25;5080482;27;45260;-55
2022/04/01 11:48:13;;;;;;;;;14.00;13.00;;;;;4.01;67.46;100219.56;5081781;27;45406;-51
2022/04/01 11:50:45;;;;;;;;;19.25;16.00;;;;;4.02;66.40;100217.81;5080698;27;45321;-56
2022/04/01 11:53:22;;;;;;;;;16.25;14.50;;;;;3.97;66.83;100217.13;5064913;28;45510;-52
2022/04/01 11:55:48;;;;;;;;;19.25;15.00;;;;;3.95;67.14;100219.81;4956549;28;45407;-55
2022/04/01 11:58:14;;;;;;;;;15.50;14.00;;;;;3.94;67.21;100218.09;4957468;28;45269;-51